createdAt,value
2017-10-05T00:02:20.891Z,97445.31
2017-10-05T00:04:49.975Z,97443.20
2017-10-05T00:07:19.912Z,97437.27
2017-10-05T00:09:48.032Z,97422.87
2017-10-05T00:12:15.621Z,97427.10
2017-10-05T00:14:43.202Z,97431.38
2017-10-05T00:17:10.813Z,97430.52
2017-10-05T00:19:38.391Z,97423.73
2017-10-05T00:22:07.300Z,97421.64
2017-10-05T00:24:35.206Z,97423.33
2017-10-05T00:27:03.213Z,97422.08
2017-10-05T00:29:31.332Z,97425.87
2017-10-05T00:31:58.905Z,97417.00
2017-10-05T00:34:29.336Z,97421.67
2017-10-05T00:36:57.356Z,97419.98
2017-10-05T00:39:26.364Z,97417.02
2017-10-05T00:41:55.913Z,97419.13
2017-10-05T00:44:23.899Z,97414.45
2017-10-05T00:46:51.847Z,97404.28
2017-10-05T00:49:19.450Z,97403.00
2017-10-05T00:51:47.036Z,97393.64
2017-10-05T00:54:16.023Z,97384.31
2017-10-05T00:56:43.622Z,97386.03
2017-10-05T00:59:12.129Z,97380.95
2017-10-05T01:01:41.973Z,97381.39
2017-10-05T01:04:09.559Z,97377.13
2017-10-05T01:06:37.157Z,97380.97
2017-10-05T01:09:04.736Z,97382.22
2017-10-05T01:11:32.345Z,97370.36
2017-10-05T01:14:00.601Z,97367.39
2017-10-05T01:16:29.578Z,97364.84
2017-10-05T01:18:58.580Z,97351.30
2017-10-05T01:21:26.155Z,97347.48
2017-10-05T01:23:55.418Z,97342.40
2017-10-05T01:26:24.427Z,97336.50
2017-10-05T01:28:52.194Z,97330.53
2017-10-05T01:31:19.773Z,97317.40
2017-10-05T01:33:47.397Z,97311.89
2017-10-05T01:36:15.273Z,97320.38
2017-10-05T01:38:44.558Z,97307.23
2017-10-05T01:41:13.893Z,97304.72
2017-10-05T01:43:42.786Z,97302.16
2017-10-05T01:46:10.337Z,97300.46
2017-10-05T01:48:38.232Z,97297.48
2017-10-05T01:51:07.630Z,97298.73
2017-10-05T01:53:36.706Z,97298.73
2017-10-05T01:56:04.317Z,97293.21
2017-10-05T01:58:31.885Z,97296.63
2017-10-05T02:00:59.857Z,97295.30
2017-10-05T02:03:27.437Z,97295.31
2017-10-05T02:05:56.801Z,97295.36
2017-10-05T02:08:25.485Z,97287.70
2017-10-05T02:10:53.030Z,97291.08
2017-10-05T02:13:21.715Z,97282.59
2017-10-05T02:15:52.013Z,97274.96
2017-10-05T02:18:20.730Z,97272.42
2017-10-05T02:20:50.048Z,97265.64
2017-10-05T02:23:19.674Z,97252.06
2017-10-05T02:25:47.254Z,97255.91
2017-10-05T02:28:15.165Z,97251.23
2017-10-05T02:30:46.440Z,97247.41
2017-10-05T02:33:16.735Z,97246.60
2017-10-05T02:35:45.620Z,97241.91
2017-10-05T02:38:13.192Z,97236.01
2017-10-05T02:40:40.788Z,97232.22
2017-10-05T02:43:08.699Z,97221.17
2017-10-05T02:45:37.509Z,97215.28
2017-10-05T02:48:06.363Z,97210.17
2017-10-05T02:50:34.307Z,97200.43
2017-10-05T02:53:03.136Z,97200.86
2017-10-05T02:55:30.706Z,97193.25
2017-10-05T02:57:59.163Z,97189.44
2017-10-05T03:00:26.702Z,97187.33
2017-10-05T03:02:54.290Z,97185.61
2017-10-05T03:05:26.433Z,97180.53
2017-10-05T03:07:54.044Z,97177.16
2017-10-05T03:10:22.905Z,97179.70
2017-10-05T03:12:50.495Z,97166.56
2017-10-05T03:15:18.521Z,97172.06
2017-10-05T03:17:46.078Z,97169.09
2017-10-05T03:20:14.992Z,97157.63
2017-10-05T03:22:42.551Z,97153.83
2017-10-05T03:25:11.287Z,97147.89
2017-10-05T03:27:38.944Z,97141.51
2017-10-05T03:30:06.537Z,97135.59
2017-10-05T03:32:35.527Z,97127.52
2017-10-05T03:35:04.537Z,97122.02
2017-10-05T03:37:32.497Z,97119.45
2017-10-05T03:40:00.394Z,97109.70
2017-10-05T03:42:27.979Z,97111.40
2017-10-05T03:44:55.955Z,97107.56
2017-10-05T03:47:23.541Z,97100.75
2017-10-05T03:49:53.548Z,97099.49
2017-10-05T03:52:22.494Z,97092.69
2017-10-05T03:54:50.857Z,97087.62
2017-10-05T03:57:18.924Z,97087.63
2017-10-05T03:59:46.557Z,97087.60
2017-10-05T04:02:14.174Z,97090.14
2017-10-05T04:04:42.181Z,97089.72
2017-10-05T04:07:09.776Z,97074.03
2017-10-05T04:09:38.791Z,97076.16
2017-10-05T04:12:06.987Z,97068.55
2017-10-05T04:14:35.856Z,97062.62
2017-10-05T04:17:03.418Z,97056.66
2017-10-05T04:19:31.132Z,97054.55
2017-10-05T04:21:59.126Z,97046.08
2017-10-05T04:24:27.073Z,97045.63
2017-10-05T04:26:54.651Z,97034.64
2017-10-05T04:29:22.236Z,97031.64
2017-10-05T04:31:51.127Z,97029.55
2017-10-05T04:34:20.732Z,97027.39
2017-10-05T04:36:48.662Z,97018.50
2017-10-05T04:39:18.131Z,97023.59
2017-10-05T04:41:45.746Z,97018.08
2017-10-05T04:44:13.327Z,97014.25
2017-10-05T04:46:41.254Z,97021.87
2017-10-05T04:49:08.833Z,97018.91
2017-10-05T04:51:37.725Z,97017.20
2017-10-05T04:54:05.324Z,97007.00
2017-10-05T04:56:35.902Z,96996.40
2017-10-05T04:59:04.618Z,96996.80
2017-10-05T05:01:33.727Z,96988.31
2017-10-05T05:04:01.792Z,96977.26
2017-10-05T05:06:31.000Z,96981.08
2017-10-05T05:08:59.071Z,96975.57
2017-10-05T05:11:27.060Z,96974.28
2017-10-05T05:13:54.980Z,96969.22
2017-10-05T05:16:22.674Z,96961.19
2017-10-05T05:18:52.038Z,96960.77
2017-10-05T05:21:19.633Z,96949.34
2017-10-05T05:23:48.892Z,96949.36
2017-10-05T05:26:16.501Z,96950.65
2017-10-05T05:28:44.446Z,96935.02
2017-10-05T05:31:12.589Z,96938.41
2017-10-05T05:33:40.166Z,96931.23
2017-10-05T05:36:10.526Z,96929.55
2017-10-05T05:38:38.450Z,96930.85
2017-10-05T05:41:06.055Z,96935.09
2017-10-05T05:43:33.785Z,96927.47
2017-10-05T05:46:02.908Z,96923.23
2017-10-05T05:48:30.497Z,96912.64
2017-10-05T05:51:01.376Z,96907.98
2017-10-05T05:53:29.743Z,96911.39
2017-10-05T05:55:57.809Z,96917.73
2017-10-05T05:58:25.396Z,96907.98
2017-10-05T06:00:53.469Z,96906.72
2017-10-05T06:03:21.051Z,96902.51
2017-10-05T06:05:49.518Z,96902.94
2017-10-05T06:08:19.800Z,96898.72
2017-10-05T06:10:47.408Z,96898.70
2017-10-05T06:13:16.747Z,96889.41
2017-10-05T06:15:44.352Z,96885.17
2017-10-05T06:18:12.982Z,96881.35
2017-10-05T06:20:40.655Z,96889.85
2017-10-05T06:23:08.667Z,96883.48
2017-10-05T06:25:39.317Z,96881.39
2017-10-05T06:28:08.501Z,96877.16
2017-10-05T06:30:36.106Z,96872.50
2017-10-05T06:33:07.162Z,96873.78
2017-10-05T06:35:34.752Z,96865.28
2017-10-05T06:38:03.756Z,96863.57
2017-10-05T06:40:32.393Z,96857.23
2017-10-05T06:42:59.944Z,96848.70
2017-10-05T06:45:27.975Z,96850.44
2017-10-05T06:47:56.130Z,96851.70
2017-10-05T06:50:24.098Z,96842.74
2017-10-05T06:52:52.074Z,96836.38
2017-10-05T06:55:19.685Z,96840.14
2017-10-05T06:57:48.396Z,96829.50
2017-10-05T07:00:17.850Z,96828.20
2017-10-05T07:02:45.786Z,96818.86
2017-10-05T07:05:14.894Z,96824.36
2017-10-05T07:07:42.475Z,96825.20
2017-10-05T07:10:11.607Z,96826.03
2017-10-05T07:12:40.916Z,96815.80
2017-10-05T07:15:08.518Z,96818.75
2017-10-05T07:17:36.103Z,96825.52
2017-10-05T07:20:03.683Z,96825.45
2017-10-05T07:22:31.666Z,96820.73
2017-10-05T07:25:02.013Z,96824.91
2017-10-05T07:27:32.437Z,96824.45
2017-10-05T07:30:00.057Z,96822.36
2017-10-05T07:32:27.993Z,96815.59
2017-10-05T07:34:56.494Z,96810.91
2017-10-05T07:37:28.040Z,96805.79
2017-10-05T07:39:56.079Z,96809.19
2017-10-05T07:42:24.081Z,96803.20
2017-10-05T07:44:51.654Z,96805.28
2017-10-05T07:47:19.283Z,96795.87
2017-10-05T07:49:46.873Z,96795.33
2017-10-05T07:52:14.489Z,96790.97
2017-10-05T07:54:42.068Z,96782.37
2017-10-05T07:57:09.653Z,96786.55
2017-10-05T07:59:37.763Z,96775.76
2017-10-05T08:02:05.510Z,96773.08
2017-10-05T08:04:33.537Z,96768.27
2017-10-05T08:07:01.176Z,96763.06
2017-10-05T08:09:28.804Z,96753.13
2017-10-05T08:11:56.388Z,96757.26
2017-10-05T08:14:23.994Z,96742.27
2017-10-05T08:16:51.940Z,96741.30
2017-10-05T08:19:19.937Z,96738.22
2017-10-05T08:21:47.533Z,96725.75
2017-10-05T08:24:15.107Z,96719.75
2017-10-05T08:26:42.718Z,96725.30
2017-10-05T08:29:10.292Z,96721.35
2017-10-05T08:31:39.264Z,96730.58
2017-10-05T08:34:06.839Z,96734.62
2017-10-05T08:36:34.464Z,96725.48
2017-10-05T08:39:02.045Z,96729.55
2017-10-05T08:41:29.609Z,96732.23
2017-10-05T08:43:57.189Z,96714.47
2017-10-05T08:46:24.754Z,96717.13
2017-10-05T08:48:52.358Z,96725.37
2017-10-05T08:51:20.153Z,96712.86
2017-10-05T08:53:47.756Z,96719.27
2017-10-05T08:56:15.549Z,96720.12
2017-10-05T08:58:44.843Z,96699.13
2017-10-05T09:01:13.994Z,96710.23
2017-10-05T09:03:42.251Z,96712.83
2017-10-05T09:06:09.821Z,96714.11
2017-10-05T09:08:37.421Z,96712.73
2017-10-05T09:11:06.762Z,96702.77
2017-10-05T09:13:34.329Z,96697.80
2017-10-05T09:16:01.911Z,96695.06
2017-10-05T09:18:29.482Z,96689.51
2017-10-05T09:20:57.076Z,96690.90
2017-10-05T09:23:25.060Z,96682.92
2017-10-05T09:25:52.704Z,96674.48
2017-10-05T09:28:20.286Z,96675.63
2017-10-05T09:30:48.203Z,96668.43
2017-10-05T09:33:15.795Z,96674.11
2017-10-05T09:35:43.786Z,96648.23
2017-10-05T09:38:11.397Z,96654.33
2017-10-05T09:40:40.404Z,96652.76
2017-10-05T09:43:08.013Z,96648.62
2017-10-05T09:45:35.582Z,96642.42
2017-10-05T09:48:03.547Z,96638.39
2017-10-05T09:50:32.602Z,96636.97
2017-10-05T09:53:00.689Z,96633.80
2017-10-05T09:55:29.118Z,96632.09
2017-10-05T09:57:56.703Z,96625.58
2017-10-05T10:00:24.988Z,96625.27
2017-10-05T10:02:53.219Z,96625.40
2017-10-05T10:05:21.236Z,96614.08
2017-10-05T10:07:49.230Z,96607.56
2017-10-05T10:10:16.821Z,96603.00
2017-10-05T10:12:44.439Z,96602.03
2017-10-05T10:15:14.697Z,96599.80
2017-10-05T10:17:43.009Z,96601.03
2017-10-05T10:20:11.012Z,96602.69
2017-10-05T10:22:38.742Z,96604.69
2017-10-05T10:25:06.475Z,96595.26
2017-10-05T10:27:34.108Z,96601.63
2017-10-05T10:30:02.697Z,96598.91
2017-10-05T10:32:30.266Z,96587.47
2017-10-05T10:34:57.891Z,96574.88
2017-10-05T10:37:25.482Z,96572.89
2017-10-05T10:39:53.226Z,96563.85
2017-10-05T10:42:20.844Z,96566.25
2017-10-05T10:44:48.431Z,96576.49
2017-10-05T10:47:15.989Z,96564.28
2017-10-05T10:49:43.883Z,96554.17
2017-10-05T10:52:11.456Z,96551.20
2017-10-05T10:54:39.042Z,96543.65
2017-10-05T10:57:07.899Z,96547.52
2017-10-05T10:59:36.701Z,96539.39
2017-10-05T11:02:04.734Z,96530.58
2017-10-05T11:04:32.341Z,96529.50
2017-10-05T11:07:03.046Z,96527.72
2017-10-05T11:09:31.352Z,96520.37
2017-10-05T11:12:01.196Z,96518.41
2017-10-05T11:14:28.808Z,96511.38
2017-10-05T11:16:56.407Z,96516.02
2017-10-05T11:19:24.031Z,96493.30
2017-10-05T11:21:52.918Z,96490.69
2017-10-05T11:24:20.535Z,96475.69
2017-10-05T11:26:48.118Z,96476.60
2017-10-05T11:29:15.726Z,96467.70
2017-10-05T11:31:43.511Z,96459.20
2017-10-05T11:34:11.905Z,96460.29
2017-10-05T11:36:39.511Z,96445.55
2017-10-05T11:39:07.107Z,96451.97
2017-10-05T11:41:34.780Z,96439.45
2017-10-05T11:44:02.371Z,96425.94
2017-10-05T11:46:30.333Z,96435.99
2017-10-05T11:48:57.895Z,96432.42
2017-10-05T11:51:25.498Z,96419.55
2017-10-05T11:53:53.604Z,96417.39
2017-10-05T11:56:21.865Z,96425.19
2017-10-05T11:58:49.470Z,96412.68
2017-10-05T12:01:17.048Z,96407.17
2017-10-05T12:03:45.162Z,96403.75
2017-10-05T12:06:12.753Z,96394.88
2017-10-05T12:08:40.363Z,96396.97
2017-10-05T12:11:08.328Z,96399.42
2017-10-05T12:13:36.223Z,96388.27
2017-10-05T12:16:03.816Z,96390.23
2017-10-05T12:18:31.395Z,96389.98
2017-10-05T12:20:59.435Z,96383.31
2017-10-05T12:23:27.040Z,96387.23
2017-10-05T12:25:54.641Z,96365.30
2017-10-05T12:28:22.205Z,96373.22
2017-10-05T12:30:50.180Z,96374.63
2017-10-05T12:33:17.761Z,96365.20
2017-10-05T12:35:45.327Z,96361.72
2017-10-05T12:38:13.255Z,96352.14
2017-10-05T12:40:40.855Z,96351.88
2017-10-05T12:43:08.481Z,96328.10
2017-10-05T12:45:36.066Z,96341.58
2017-10-05T12:48:04.017Z,96343.85
2017-10-05T12:50:33.272Z,96337.67
2017-10-05T12:53:00.890Z,96336.88
2017-10-05T12:55:29.154Z,96326.80
2017-10-05T12:57:56.780Z,96316.73
2017-10-05T13:00:24.952Z,96320.23
2017-10-05T13:02:52.935Z,96306.06
2017-10-05T13:05:20.689Z,96297.75
2017-10-05T13:07:48.262Z,96283.50
2017-10-05T13:10:17.153Z,96274.32
2017-10-05T13:12:44.727Z,96292.73
2017-10-05T13:15:12.347Z,96282.22
2017-10-05T13:17:39.935Z,96276.60
2017-10-05T13:20:08.206Z,96301.48
2017-10-05T13:22:35.787Z,96298.30
2017-10-05T13:25:03.376Z,96275.49
2017-10-05T13:27:30.976Z,96275.56
2017-10-05T13:29:58.990Z,96259.99
2017-10-05T13:32:29.184Z,96256.42
2017-10-05T13:34:56.914Z,96265.86
2017-10-05T13:37:24.536Z,96247.97
2017-10-05T13:39:52.240Z,96253.98
2017-10-05T13:42:21.139Z,96244.97
2017-10-05T13:44:48.729Z,96239.13
2017-10-05T13:47:16.658Z,96233.55
2017-10-05T13:49:44.902Z,96228.83
2017-10-05T13:52:12.586Z,96231.63
2017-10-05T13:54:40.562Z,96236.72
2017-10-05T13:57:08.440Z,96224.61
2017-10-05T13:59:36.472Z,96230.25
2017-10-05T14:02:04.115Z,96227.35
2017-10-05T14:04:32.087Z,96216.22
2017-10-05T14:06:59.658Z,96225.83
2017-10-05T14:09:27.232Z,96231.39
2017-10-05T14:11:54.886Z,96227.78
2017-10-05T14:14:22.469Z,96224.78
2017-10-05T14:16:50.076Z,96231.80
2017-10-05T14:19:18.172Z,96232.00
2017-10-05T14:21:45.817Z,96241.59
2017-10-05T14:24:13.407Z,96243.61
2017-10-05T14:26:41.094Z,96238.20
2017-10-05T14:29:08.691Z,96232.70
2017-10-05T14:31:36.294Z,96224.98
2017-10-05T14:34:03.895Z,96235.54
2017-10-05T14:36:31.597Z,96231.88
2017-10-05T14:38:59.201Z,96239.48
2017-10-05T14:41:28.157Z,96245.88
2017-10-05T14:43:55.791Z,96236.79
2017-10-05T14:46:24.801Z,96216.89
2017-10-05T14:48:52.420Z,96233.40
2017-10-05T14:51:20.491Z,96247.86
2017-10-05T14:53:49.487Z,96243.94
2017-10-05T14:56:17.101Z,96255.62
2017-10-05T14:58:44.663Z,96265.95
2017-10-05T15:01:12.668Z,96264.16
2017-10-05T15:03:40.720Z,96266.61
2017-10-05T15:06:08.711Z,96260.58
2017-10-05T15:08:36.314Z,96271.48
2017-10-05T15:11:03.939Z,96268.95
2017-10-05T15:13:31.514Z,96262.09
2017-10-05T15:15:59.566Z,96270.30
2017-10-05T15:18:27.184Z,96278.95
2017-10-05T15:20:54.766Z,96284.74
2017-10-05T15:23:22.358Z,96285.16
2017-10-05T15:25:49.952Z,96308.03
2017-10-05T15:28:17.888Z,96283.34
2017-10-05T15:30:45.906Z,96291.48
2017-10-05T15:33:13.528Z,96315.57
2017-10-05T15:35:41.520Z,96324.39
2017-10-05T15:38:09.087Z,96316.58
2017-10-05T15:40:38.323Z,96327.63
2017-10-05T15:43:08.871Z,96332.23
2017-10-05T15:45:36.708Z,96327.95
2017-10-05T15:48:04.644Z,96338.27
2017-10-05T15:50:32.270Z,96340.75
2017-10-05T15:52:59.934Z,96330.58
2017-10-05T15:55:27.550Z,96369.03
2017-10-05T15:57:55.934Z,96368.84
2017-10-05T16:00:25.280Z,96384.49
2017-10-05T16:03:00.665Z,96375.22
2017-10-05T16:11:21.280Z,96405.09
2017-10-05T16:13:48.850Z,96415.52
2017-10-05T16:16:17.629Z,96407.67
2017-10-05T16:18:46.460Z,96417.72
2017-10-05T16:21:14.053Z,96428.23
2017-10-05T16:23:44.288Z,96437.38
2017-10-05T16:26:11.859Z,96431.17
2017-10-05T16:28:40.787Z,96436.41
2017-10-05T16:31:16.289Z,96452.27
2017-10-05T16:33:46.968Z,96438.42
2017-10-05T16:36:17.310Z,96458.28
2017-10-05T16:38:45.388Z,96466.19
2017-10-05T16:41:15.062Z,96451.60
2017-10-05T16:43:42.656Z,96472.00
2017-10-05T16:46:10.660Z,96480.67
2017-10-05T16:48:38.265Z,96469.31
2017-10-05T16:51:06.782Z,96481.44
2017-10-05T16:53:34.892Z,96493.20
2017-10-05T16:56:02.520Z,96492.05
2017-10-05T16:58:32.980Z,96499.81
2017-10-05T17:01:06.268Z,96495.65
2017-10-05T17:03:33.929Z,96505.94
2017-10-05T17:06:05.327Z,96515.03
2017-10-05T17:08:35.987Z,96518.01
2017-10-05T17:11:05.998Z,96512.55
2017-10-05T17:13:34.771Z,96522.39
2017-10-05T17:16:02.366Z,96520.73
2017-10-05T17:18:29.980Z,96526.70
2017-10-05T17:20:59.042Z,96534.94
2017-10-05T17:23:26.661Z,96534.94
2017-10-05T17:25:55.881Z,96543.08
2017-10-05T17:28:23.512Z,96547.33
2017-10-05T17:30:51.292Z,96550.28
2017-10-05T17:33:19.574Z,96556.69
2017-10-05T17:35:47.126Z,96563.07
2017-10-05T17:38:14.706Z,96567.81
2017-10-05T17:40:44.069Z,96571.21
2017-10-05T17:43:12.046Z,96571.30
2017-10-05T17:45:39.667Z,96576.42
2017-10-05T17:48:08.715Z,96576.48
2017-10-05T17:50:36.391Z,96563.34
2017-10-05T17:53:04.389Z,96577.42
2017-10-05T17:55:32.030Z,96575.74
2017-10-05T17:57:59.760Z,96579.97
2017-10-05T18:00:27.509Z,96596.16
2017-10-05T18:02:55.112Z,96591.52
2017-10-05T18:05:22.704Z,96594.11
2017-10-05T18:07:50.723Z,96589.84
2017-10-05T18:10:18.740Z,96605.16
2017-10-05T18:12:47.857Z,96615.81
2017-10-05T18:15:17.048Z,96613.23
2017-10-05T18:17:45.104Z,96609.46
2017-10-05T18:20:12.696Z,96620.55
2017-10-05T18:22:41.399Z,96655.35
2017-10-05T18:25:10.588Z,96652.84
2017-10-05T18:27:39.641Z,96677.67
2017-10-05T18:30:07.288Z,96682.38
2017-10-05T18:32:38.887Z,96683.69
2017-10-05T18:35:06.498Z,96685.42
2017-10-05T18:37:34.121Z,96689.28
2017-10-05T18:40:03.634Z,96688.42
2017-10-05T18:42:32.575Z,96681.25
2017-10-05T18:45:01.481Z,96701.18
2017-10-05T18:47:30.471Z,96699.90
2017-10-05T18:49:59.145Z,96705.85
2017-10-05T18:52:27.501Z,96693.11
2017-10-05T18:54:55.856Z,96696.52
2017-10-05T18:57:24.552Z,96696.09
2017-10-05T18:59:52.351Z,96694.38
2017-10-05T19:02:22.325Z,96707.09
2017-10-05T19:04:49.913Z,96712.20
2017-10-05T19:07:17.576Z,96716.03
2017-10-05T19:09:45.192Z,96721.08
2017-10-05T19:12:12.837Z,96720.23
2017-10-05T19:14:40.452Z,96730.42
2017-10-05T19:17:09.843Z,96726.19
2017-10-05T19:19:38.635Z,96728.30
2017-10-05T19:22:07.394Z,96733.39
2017-10-05T19:24:36.050Z,96727.90
2017-10-05T19:27:05.716Z,96730.00
2017-10-05T19:29:33.369Z,96731.27
2017-10-05T19:32:03.009Z,96737.21
2017-10-05T19:34:30.601Z,96741.88
2017-10-05T19:36:58.605Z,96738.04
2017-10-05T19:39:27.037Z,96740.16
2017-10-05T19:41:54.662Z,96742.70
2017-10-05T19:44:22.886Z,96743.12
2017-10-05T19:46:52.889Z,96740.98
2017-10-05T19:49:20.498Z,96756.23
2017-10-05T19:51:48.101Z,96755.42
2017-10-05T19:54:15.716Z,96763.45
2017-10-05T19:56:43.780Z,96766.85
2017-10-05T19:59:12.772Z,96769.39
2017-10-05T20:01:40.382Z,96771.94
2017-10-05T20:04:11.047Z,96768.97
2017-10-05T20:06:39.021Z,96773.19
2017-10-05T20:09:06.979Z,96778.30
2017-10-05T20:11:36.008Z,96779.55
2017-10-05T20:17:24.764Z,96788.00
2017-10-05T20:19:57.870Z,96790.54
2017-10-05T20:22:31.346Z,96795.59
2017-10-05T20:25:01.736Z,96793.06
2017-10-05T20:27:32.997Z,96800.64
2017-10-05T20:30:19.714Z,96807.01
2017-10-05T20:32:47.697Z,96802.78
2017-10-05T20:35:15.988Z,96805.75
2017-10-05T20:37:43.581Z,96801.53
2017-10-05T20:40:11.117Z,96804.05
2017-10-05T20:42:40.154Z,96792.64
2017-10-05T20:45:07.770Z,96807.90
2017-10-05T20:47:35.359Z,96813.38
2017-10-05T20:50:04.441Z,96830.77
2017-10-05T20:52:32.416Z,96839.22
2017-10-05T20:55:00.493Z,96848.98
2017-10-05T20:57:28.095Z,96844.30
2017-10-05T20:59:56.120Z,96825.22
2017-10-05T21:02:23.712Z,96823.55
2017-10-05T21:04:51.299Z,96818.03
2017-10-05T21:07:19.301Z,96836.27
2017-10-05T21:09:46.882Z,96841.38
2017-10-05T21:12:14.899Z,96843.92
2017-10-05T21:14:42.476Z,96845.20
2017-10-05T21:17:10.557Z,96865.08
2017-10-05T21:19:38.150Z,96878.61
2017-10-05T21:22:06.180Z,96876.50
2017-10-05T21:24:34.511Z,96878.58
2017-10-05T21:27:02.118Z,96892.08
2017-10-05T21:29:29.709Z,96895.05
2017-10-05T21:31:57.329Z,96896.80
2017-10-05T21:34:25.537Z,96893.41
2017-10-05T21:36:53.592Z,96893.77
2017-10-05T21:39:21.155Z,96904.30
2017-10-05T21:41:49.060Z,96910.66
2017-10-05T21:44:16.960Z,96908.96
2017-10-05T21:46:44.550Z,96910.66
2017-10-05T21:49:12.178Z,96921.63
2017-10-05T21:51:39.764Z,96914.40
2017-10-05T21:54:08.571Z,96914.83
2017-10-05T21:56:36.131Z,96928.02
2017-10-05T21:59:03.729Z,96920.39
2017-10-05T22:01:31.283Z,96918.23
2017-10-05T22:03:59.202Z,96923.31
2017-10-05T22:06:26.804Z,96919.47
2017-10-05T22:08:55.027Z,96909.31
2017-10-05T22:11:22.621Z,96902.52
2017-10-05T22:13:50.215Z,96903.80
2017-10-05T22:16:17.853Z,96909.75
2017-10-05T22:18:45.412Z,96914.00
2017-10-05T22:21:13.361Z,96917.77
2017-10-05T22:23:41.687Z,96914.80
2017-10-05T22:26:09.269Z,96921.94
2017-10-05T22:28:36.859Z,96935.02
2017-10-05T22:31:04.418Z,96931.59
2017-10-05T22:33:32.121Z,96940.44
2017-10-05T22:36:01.144Z,96938.34
2017-10-05T22:38:28.811Z,96938.78
2017-10-05T22:40:56.422Z,96925.23
2017-10-05T22:43:24.013Z,96939.22
2017-10-05T22:45:51.621Z,96941.77
2017-10-05T22:48:19.219Z,96940.07
2017-10-05T22:50:47.629Z,96951.05
2017-10-05T22:53:15.228Z,96948.50
2017-10-05T22:55:43.217Z,96951.84
2017-10-05T22:58:11.914Z,96954.37
2017-10-05T23:00:40.043Z,96961.98
2017-10-05T23:03:08.352Z,96970.05
2017-10-05T23:05:35.918Z,96968.37
2017-10-05T23:08:04.504Z,96969.63
2017-10-05T23:10:32.060Z,96967.53
2017-10-05T23:12:59.970Z,96967.94
2017-10-05T23:15:27.538Z,96968.34
2017-10-05T23:17:55.484Z,96973.41
2017-10-05T23:20:23.068Z,96971.26
2017-10-05T23:22:50.649Z,96980.12
2017-10-05T23:25:18.267Z,96986.05
2017-10-05T23:27:46.016Z,96981.77
2017-10-05T23:30:13.622Z,96983.03
2017-10-05T23:32:41.217Z,96985.56
2017-10-05T23:35:09.156Z,96983.84
2017-10-05T23:37:36.754Z,96981.67
2017-10-05T23:40:04.455Z,96981.66
2017-10-05T23:42:32.082Z,96987.09
2017-10-05T23:44:59.656Z,96986.27
2017-10-05T23:47:27.273Z,96990.89
2017-10-05T23:49:55.247Z,96995.12
2017-10-05T23:52:22.808Z,96989.58
2017-10-05T23:54:50.415Z,96988.69
2017-10-05T23:57:18.537Z,96987.44
2017-10-05T23:59:46.123Z,96989.10
